createdAt,value
2024-04-04T00:00:48.000Z,10.330078124999996
2024-04-04T00:01:48.000Z,10.330078124999996
2024-04-04T00:02:49.000Z,7.751953125
2024-04-04T00:03:49.000Z,11.619140625000002
2024-04-04T00:04:49.000Z,9.36328125
2024-04-04T00:05:49.000Z,10.007812500000002
2024-04-04T00:06:49.000Z,10.007812500000002
2024-04-04T00:07:49.000Z,9.685546874999995
2024-04-04T00:08:50.000Z,11.296874999999995
2024-04-04T00:09:50.000Z,10.652343750000004
2024-04-04T00:10:50.000Z,9.685546874999995
2024-04-04T00:11:50.000Z,10.007812500000002
2024-04-04T00:12:50.000Z,10.974609375
2024-04-04T00:13:51.000Z,10.330078124999996
2024-04-04T00:14:51.000Z,9.36328125
2024-04-04T00:15:51.000Z,10.007812500000002
2024-04-04T00:16:51.000Z,10.652343750000004
2024-04-04T00:17:51.000Z,10.974609375
2024-04-04T00:18:51.000Z,10.330078124999996
2024-04-04T00:19:52.000Z,9.685546874999995
2024-04-04T00:20:52.000Z,11.296874999999995
2024-04-04T00:21:52.000Z,10.007812500000002
2024-04-04T00:22:52.000Z,10.007812500000002
2024-04-04T00:23:52.000Z,9.041015625000004
2024-04-04T00:24:53.000Z,8.718749999999996
2024-04-04T00:25:53.000Z,11.619140625000002
2024-04-04T00:26:53.000Z,10.007812500000002
2024-04-04T00:27:53.000Z,10.330078124999996
2024-04-04T00:28:53.000Z,9.685546874999995
2024-04-04T00:29:53.000Z,10.330078124999996
2024-04-04T00:30:54.000Z,11.619140625000002
2024-04-04T00:31:54.000Z,10.007812500000002
2024-04-04T00:32:54.000Z,10.330078124999996
2024-04-04T00:33:54.000Z,11.619140625000002
2024-04-04T00:34:55.000Z,9.36328125
2024-04-04T00:35:55.000Z,10.007812500000002
2024-04-04T00:36:55.000Z,8.718749999999996
2024-04-04T00:37:56.000Z,10.330078124999996
2024-04-04T00:38:56.000Z,10.007812500000002
2024-04-04T00:39:56.000Z,10.330078124999996
2024-04-04T00:40:56.000Z,8.718749999999996
2024-04-04T00:41:56.000Z,11.941406249999996
2024-04-04T00:42:57.000Z,11.619140625000002
2024-04-04T00:43:57.000Z,8.718749999999996
2024-04-04T00:44:57.000Z,9.685546874999995
2024-04-04T00:45:57.000Z,8.718749999999996
2024-04-04T00:46:57.000Z,10.330078124999996
2024-04-04T00:47:58.000Z,10.652343750000004
2024-04-04T00:48:58.000Z,10.652343750000004
2024-04-04T00:49:58.000Z,9.041015625000004
2024-04-04T00:50:58.000Z,10.330078124999996
2024-04-04T00:51:58.000Z,9.685546874999995
2024-04-04T00:52:59.000Z,11.296874999999995
2024-04-04T00:53:59.000Z,11.941406249999996
2024-04-04T00:54:59.000Z,9.685546874999995
2024-04-04T00:55:59.000Z,10.330078124999996
2024-04-04T00:56:59.000Z,9.041015625000004
2024-04-04T00:58:00.000Z,10.652343750000004
2024-04-04T00:59:00.000Z,10.330078124999996
2024-04-04T01:00:00.000Z,9.36328125
2024-04-04T01:01:00.000Z,10.007812500000002
2024-04-04T01:02:00.000Z,10.330078124999996
2024-04-04T01:03:01.000Z,10.974609375
2024-04-04T01:04:01.000Z,13.230468750000002
2024-04-04T01:05:01.000Z,10.330078124999996
2024-04-04T01:06:01.000Z,12.263671875000004
2024-04-04T01:07:01.000Z,10.652343750000004
2024-04-04T01:08:02.000Z,10.007812500000002
2024-04-04T01:09:02.000Z,8.718749999999996
2024-04-04T01:10:02.000Z,10.974609375
2024-04-04T01:11:02.000Z,11.619140625000002
2024-04-04T01:12:02.000Z,10.652343750000004
2024-04-04T01:13:03.000Z,10.007812500000002
2024-04-04T01:14:03.000Z,10.007812500000002
2024-04-04T01:15:03.000Z,10.330078124999996
2024-04-04T01:16:03.000Z,10.007812500000002
2024-04-04T01:17:03.000Z,9.685546874999995
2024-04-04T01:18:03.000Z,8.074218749999995
2024-04-04T01:19:04.000Z,10.330078124999996
2024-04-04T01:20:04.000Z,10.330078124999996
2024-04-04T01:21:04.000Z,9.685546874999995
2024-04-04T01:22:04.000Z,10.007812500000002
2024-04-04T01:23:04.000Z,10.330078124999996
2024-04-04T01:24:05.000Z,11.941406249999996
2024-04-04T01:25:05.000Z,10.652343750000004
2024-04-04T01:26:05.000Z,10.974609375
2024-04-04T01:27:05.000Z,8.718749999999996
2024-04-04T01:28:05.000Z,11.941406249999996
2024-04-04T01:29:06.000Z,10.007812500000002
2024-04-04T01:30:06.000Z,9.36328125
2024-04-04T01:31:06.000Z,10.330078124999996
2024-04-04T01:32:06.000Z,9.36328125
2024-04-04T01:33:07.000Z,10.007812500000002
2024-04-04T01:34:07.000Z,10.652343750000004
2024-04-04T01:35:07.000Z,10.007812500000002
2024-04-04T01:36:07.000Z,10.652343750000004
2024-04-04T01:37:07.000Z,8.396484375000002
2024-04-04T01:38:08.000Z,10.330078124999996
2024-04-04T01:39:08.000Z,9.041015625000004
2024-04-04T01:40:08.000Z,8.718749999999996
2024-04-04T01:41:08.000Z,10.652343750000004
2024-04-04T01:42:08.000Z,8.396484375000002
2024-04-04T01:43:08.000Z,10.330078124999996
2024-04-04T01:44:09.000Z,10.330078124999996
2024-04-04T01:45:09.000Z,10.330078124999996
2024-04-04T01:46:09.000Z,11.296874999999995
2024-04-04T01:47:09.000Z,9.685546874999995
2024-04-04T01:48:09.000Z,10.330078124999996
2024-04-04T01:49:10.000Z,10.330078124999996
2024-04-04T01:50:10.000Z,10.330078124999996
2024-04-04T01:51:10.000Z,8.718749999999996
2024-04-04T01:52:10.000Z,10.652343750000004
2024-04-04T01:53:10.000Z,10.652343750000004
2024-04-04T01:54:10.000Z,11.941406249999996
2024-04-04T01:55:11.000Z,10.330078124999996
2024-04-04T01:56:11.000Z,10.007812500000002
2024-04-04T01:57:11.000Z,10.652343750000004
2024-04-04T01:58:11.000Z,10.652343750000004
2024-04-04T01:59:11.000Z,10.330078124999996
2024-04-04T02:00:11.000Z,11.296874999999995
2024-04-04T02:01:12.000Z,10.330078124999996
2024-04-04T02:02:12.000Z,10.007812500000002
2024-04-04T02:03:12.000Z,11.941406249999996
2024-04-04T02:04:12.000Z,10.330078124999996
2024-04-04T02:05:13.000Z,10.652343750000004
2024-04-04T02:06:13.000Z,10.330078124999996
2024-04-04T02:07:13.000Z,12.263671875000004
2024-04-04T02:08:13.000Z,10.652343750000004
2024-04-04T02:09:13.000Z,10.330078124999996
2024-04-04T02:10:14.000Z,10.330078124999996
2024-04-04T02:11:14.000Z,10.652343750000004
2024-04-04T02:12:14.000Z,9.685546874999995
2024-04-04T02:13:14.000Z,9.36328125
2024-04-04T02:14:14.000Z,9.685546874999995
2024-04-04T02:15:15.000Z,9.685546874999995
2024-04-04T02:16:15.000Z,8.718749999999996
2024-04-04T02:17:15.000Z,11.296874999999995
2024-04-04T02:18:15.000Z,12.263671875000004
2024-04-04T02:19:15.000Z,9.36328125
2024-04-04T02:20:16.000Z,10.007812500000002
2024-04-04T02:21:16.000Z,10.330078124999996
2024-04-04T02:22:16.000Z,10.974609375
2024-04-04T02:23:16.000Z,9.041015625000004
2024-04-04T02:24:16.000Z,12.5859375
2024-04-04T02:25:17.000Z,11.941406249999996
2024-04-04T02:26:17.000Z,10.652343750000004
2024-04-04T02:27:17.000Z,11.619140625000002
2024-04-04T02:28:17.000Z,10.007812500000002
2024-04-04T02:29:17.000Z,10.330078124999996
2024-04-04T02:30:17.000Z,9.041015625000004
2024-04-04T02:31:18.000Z,10.330078124999996
2024-04-04T02:32:18.000Z,10.330078124999996
2024-04-04T02:33:18.000Z,10.007812500000002
2024-04-04T02:34:18.000Z,11.619140625000002
2024-04-04T02:35:19.000Z,10.007812500000002
2024-04-04T02:36:19.000Z,9.36328125
2024-04-04T02:37:19.000Z,10.330078124999996
2024-04-04T02:38:19.000Z,8.718749999999996
2024-04-04T02:39:19.000Z,9.041015625000004
2024-04-04T02:40:19.000Z,10.652343750000004
2024-04-04T02:41:20.000Z,11.619140625000002
2024-04-04T02:42:20.000Z,9.36328125
2024-04-04T02:43:20.000Z,10.330078124999996
2024-04-04T02:44:20.000Z,10.330078124999996
2024-04-04T02:45:20.000Z,10.330078124999996
2024-04-04T02:46:20.000Z,10.652343750000004
2024-04-04T02:47:21.000Z,10.330078124999996
2024-04-04T02:48:21.000Z,11.941406249999996
2024-04-04T02:49:21.000Z,12.263671875000004
2024-04-04T02:50:21.000Z,8.396484375000002
2024-04-04T02:51:22.000Z,10.330078124999996
2024-04-04T02:52:22.000Z,10.007812500000002
2024-04-04T02:53:22.000Z,8.396484375000002
2024-04-04T02:54:22.000Z,9.685546874999995
2024-04-04T02:55:22.000Z,11.619140625000002
2024-04-04T02:56:23.000Z,8.396484375000002
2024-04-04T02:57:23.000Z,10.007812500000002
2024-04-04T02:58:23.000Z,11.296874999999995
2024-04-04T02:59:23.000Z,10.007812500000002
2024-04-04T03:00:23.000Z,10.007812500000002
2024-04-04T03:01:23.000Z,10.007812500000002
2024-04-04T03:02:24.000Z,10.330078124999996
2024-04-04T03:03:24.000Z,10.007812500000002
2024-04-04T03:04:24.000Z,11.619140625000002
2024-04-04T03:05:24.000Z,8.718749999999996
2024-04-04T03:06:24.000Z,9.36328125
2024-04-04T03:07:25.000Z,11.619140625000002
2024-04-04T03:08:25.000Z,10.007812500000002
2024-04-04T03:09:25.000Z,10.652343750000004
2024-04-04T03:10:25.000Z,9.685546874999995
2024-04-04T03:11:25.000Z,10.330078124999996
2024-04-04T03:12:25.000Z,10.007812500000002
2024-04-04T03:13:26.000Z,10.974609375
2024-04-04T03:14:26.000Z,9.685546874999995
2024-04-04T03:15:26.000Z,10.007812500000002
2024-04-04T03:16:26.000Z,9.041015625000004
2024-04-04T03:17:26.000Z,12.263671875000004
2024-04-04T03:18:26.000Z,10.007812500000002
2024-04-04T03:19:27.000Z,10.330078124999996
2024-04-04T03:20:27.000Z,10.330078124999996
2024-04-04T03:21:27.000Z,10.330078124999996
2024-04-04T03:22:27.000Z,10.330078124999996
2024-04-04T03:23:27.000Z,10.007812500000002
2024-04-04T03:24:28.000Z,10.330078124999996
2024-04-04T03:25:28.000Z,10.330078124999996
2024-04-04T03:26:28.000Z,10.330078124999996
2024-04-04T03:27:28.000Z,8.718749999999996
2024-04-04T03:28:28.000Z,9.685546874999995
2024-04-04T03:29:29.000Z,10.330078124999996
2024-04-04T03:30:29.000Z,11.941406249999996
2024-04-04T03:31:29.000Z,10.330078124999996
2024-04-04T03:32:29.000Z,10.330078124999996
2024-04-04T03:33:29.000Z,11.619140625000002
2024-04-04T03:34:30.000Z,10.007812500000002
2024-04-04T03:35:30.000Z,10.652343750000004
2024-04-04T03:36:30.000Z,10.330078124999996
2024-04-04T03:37:30.000Z,10.652343750000004
2024-04-04T03:38:30.000Z,9.041015625000004
2024-04-04T03:39:31.000Z,10.007812500000002
2024-04-04T03:40:31.000Z,9.041015625000004
2024-04-04T03:41:31.000Z,9.685546874999995
2024-04-04T03:42:31.000Z,10.007812500000002
2024-04-04T03:43:31.000Z,11.941406249999996
2024-04-04T03:44:32.000Z,11.619140625000002
2024-04-04T03:45:32.000Z,9.685546874999995
2024-04-04T03:46:32.000Z,11.296874999999995
2024-04-04T03:47:32.000Z,10.652343750000004
2024-04-04T03:48:32.000Z,10.652343750000004
2024-04-04T03:49:33.000Z,10.330078124999996
2024-04-04T03:50:33.000Z,10.652343750000004
2024-04-04T03:51:33.000Z,9.685546874999995
2024-04-04T03:52:33.000Z,10.007812500000002
2024-04-04T03:53:33.000Z,10.007812500000002
2024-04-04T03:54:33.000Z,10.330078124999996
2024-04-04T03:55:34.000Z,10.330078124999996
2024-04-04T03:56:34.000Z,10.007812500000002
2024-04-04T03:57:34.000Z,10.330078124999996
2024-04-04T03:58:34.000Z,9.685546874999995
2024-04-04T03:59:34.000Z,10.007812500000002
2024-04-04T04:00:35.000Z,10.007812500000002
2024-04-04T04:01:35.000Z,10.330078124999996
2024-04-04T04:02:35.000Z,8.396484375000002
2024-04-04T04:03:35.000Z,9.685546874999995
2024-04-04T04:04:35.000Z,9.685546874999995
2024-04-04T04:05:36.000Z,9.685546874999995
2024-04-04T04:06:36.000Z,9.36328125
2024-04-04T04:07:36.000Z,9.685546874999995
2024-04-04T04:08:36.000Z,10.007812500000002
2024-04-04T04:09:36.000Z,10.007812500000002
2024-04-04T04:10:36.000Z,9.041015625000004
2024-04-04T04:11:37.000Z,9.685546874999995
2024-04-04T04:12:37.000Z,9.36328125
2024-04-04T04:13:37.000Z,10.652343750000004
2024-04-04T04:14:37.000Z,10.652343750000004
2024-04-04T04:15:37.000Z,8.074218749999995
2024-04-04T04:16:38.000Z,10.974609375
2024-04-04T04:17:38.000Z,8.074218749999995
2024-04-04T04:18:38.000Z,10.330078124999996
2024-04-04T04:19:38.000Z,9.041015625000004
2024-04-04T04:20:38.000Z,10.330078124999996
2024-04-04T04:21:39.000Z,9.685546874999995
2024-04-04T04:22:39.000Z,9.36328125
2024-04-04T04:23:39.000Z,9.685546874999995
2024-04-04T04:24:39.000Z,8.396484375000002
2024-04-04T04:25:39.000Z,9.36328125
2024-04-04T04:26:40.000Z,9.041015625000004
2024-04-04T04:27:40.000Z,10.974609375
2024-04-04T04:28:40.000Z,10.652343750000004
2024-04-04T04:29:40.000Z,9.041015625000004
2024-04-04T04:30:40.000Z,9.36328125
2024-04-04T04:31:41.000Z,9.36328125
2024-04-04T04:32:41.000Z,9.36328125
2024-04-04T04:33:41.000Z,9.041015625000004
2024-04-04T04:34:41.000Z,8.396484375000002
2024-04-04T04:35:41.000Z,10.007812500000002
2024-04-04T04:36:41.000Z,11.296874999999995
2024-04-04T04:37:42.000Z,8.074218749999995
2024-04-04T04:38:42.000Z,8.074218749999995
2024-04-04T04:39:42.000Z,9.041015625000004
2024-04-04T04:40:42.000Z,8.396484375000002
2024-04-04T04:41:42.000Z,10.330078124999996
2024-04-04T04:42:43.000Z,8.718749999999996
2024-04-04T04:43:43.000Z,9.041015625000004
2024-04-04T04:44:43.000Z,10.652343750000004
2024-04-04T04:45:43.000Z,10.007812500000002
2024-04-04T04:46:43.000Z,7.751953125
2024-04-04T04:47:44.000Z,10.652343750000004
2024-04-04T04:48:44.000Z,9.041015625000004
2024-04-04T04:49:44.000Z,9.041015625000004
2024-04-04T04:50:44.000Z,9.041015625000004
2024-04-04T04:51:44.000Z,9.36328125
2024-04-04T04:52:44.000Z,8.074218749999995
2024-04-04T04:53:45.000Z,7.4296875000000036
2024-04-04T04:54:45.000Z,9.041015625000004
2024-04-04T04:55:45.000Z,9.041015625000004
2024-04-04T04:56:45.000Z,8.718749999999996
2024-04-04T04:57:45.000Z,7.107421874999997
2024-04-04T04:58:46.000Z,7.751953125
2024-04-04T04:59:46.000Z,7.751953125
2024-04-04T05:00:46.000Z,9.36328125
2024-04-04T05:01:46.000Z,8.396484375000002
2024-04-04T05:02:46.000Z,10.007812500000002
2024-04-04T05:03:46.000Z,8.396484375000002
2024-04-04T05:04:47.000Z,7.751953125
2024-04-04T05:05:47.000Z,8.718749999999996
2024-04-04T05:06:47.000Z,7.751953125
2024-04-04T05:07:47.000Z,9.685546874999995
2024-04-04T05:08:47.000Z,9.36328125
2024-04-04T05:09:48.000Z,9.041015625000004
2024-04-04T05:10:48.000Z,8.074218749999995
2024-04-04T05:11:48.000Z,9.041015625000004
2024-04-04T05:12:48.000Z,7.751953125
2024-04-04T05:13:48.000Z,8.718749999999996
2024-04-04T05:14:49.000Z,8.396484375000002
2024-04-04T05:15:49.000Z,9.041015625000004
2024-04-04T05:16:49.000Z,9.041015625000004
2024-04-04T05:17:49.000Z,9.685546874999995
2024-04-04T05:18:49.000Z,8.074218749999995
2024-04-04T05:19:50.000Z,8.718749999999996
2024-04-04T05:20:50.000Z,7.107421874999997
2024-04-04T05:21:50.000Z,9.041015625000004
2024-04-04T05:22:50.000Z,7.751953125
2024-04-04T05:23:50.000Z,9.041015625000004
2024-04-04T05:24:51.000Z,9.041015625000004
2024-04-04T05:25:51.000Z,7.4296875000000036
2024-04-04T05:26:51.000Z,9.36328125
2024-04-04T05:27:51.000Z,8.718749999999996
2024-04-04T05:28:51.000Z,10.007812500000002
2024-04-04T05:29:51.000Z,9.041015625000004
2024-04-04T05:30:52.000Z,9.36328125
2024-04-04T05:31:52.000Z,8.718749999999996
2024-04-04T05:32:52.000Z,8.718749999999996
2024-04-04T05:33:52.000Z,7.107421874999997
2024-04-04T05:34:52.000Z,9.36328125
2024-04-04T05:35:53.000Z,8.396484375000002
2024-04-04T05:36:53.000Z,10.330078124999996
2024-04-04T05:37:53.000Z,9.36328125
2024-04-04T05:38:53.000Z,9.041015625000004
2024-04-04T05:39:53.000Z,9.041015625000004
2024-04-04T05:40:54.000Z,8.718749999999996
2024-04-04T05:41:54.000Z,9.041015625000004
2024-04-04T05:42:54.000Z,8.396484375000002
2024-04-04T05:43:54.000Z,8.074218749999995
2024-04-04T05:44:54.000Z,10.652343750000004
2024-04-04T05:45:55.000Z,9.041015625000004
2024-04-04T05:46:55.000Z,9.36328125
2024-04-04T05:47:55.000Z,9.041015625000004
2024-04-04T05:48:55.000Z,7.751953125
2024-04-04T05:49:55.000Z,7.4296875000000036
2024-04-04T05:50:55.000Z,9.685546874999995
2024-04-04T05:51:56.000Z,9.685546874999995
2024-04-04T05:52:56.000Z,10.330078124999996
2024-04-04T05:53:56.000Z,8.396484375000002
2024-04-04T05:54:56.000Z,8.718749999999996
2024-04-04T05:55:56.000Z,8.396484375000002
2024-04-04T05:56:56.000Z,9.36328125
2024-04-04T05:57:57.000Z,9.36328125
2024-04-04T05:58:57.000Z,9.041015625000004
2024-04-04T05:59:57.000Z,10.007812500000002
2024-04-04T06:00:57.000Z,9.36328125
2024-04-04T06:01:57.000Z,10.330078124999996
2024-04-04T06:02:57.000Z,9.685546874999995
2024-04-04T06:03:58.000Z,8.074218749999995
2024-04-04T06:04:58.000Z,9.685546874999995
2024-04-04T06:05:58.000Z,9.685546874999995
2024-04-04T06:06:58.000Z,10.007812500000002
2024-04-04T06:07:58.000Z,10.974609375
2024-04-04T06:08:59.000Z,10.007812500000002
2024-04-04T06:09:59.000Z,9.685546874999995
2024-04-04T06:10:59.000Z,10.007812500000002
2024-04-04T06:11:59.000Z,10.652343750000004
2024-04-04T06:13:00.000Z,10.007812500000002
2024-04-04T06:14:00.000Z,10.007812500000002
2024-04-04T06:15:00.000Z,9.36328125
2024-04-04T06:16:00.000Z,10.007812500000002
2024-04-04T06:17:01.000Z,9.36328125
2024-04-04T06:18:01.000Z,8.074218749999995
2024-04-04T06:19:01.000Z,8.718749999999996
2024-04-04T06:20:01.000Z,9.685546874999995
2024-04-04T06:21:01.000Z,10.330078124999996
2024-04-04T06:22:01.000Z,10.007812500000002
2024-04-04T06:23:02.000Z,9.685546874999995
2024-04-04T06:24:02.000Z,9.685546874999995
2024-04-04T06:25:02.000Z,9.685546874999995
2024-04-04T06:26:02.000Z,8.718749999999996
2024-04-04T06:27:02.000Z,8.396484375000002
2024-04-04T06:28:02.000Z,10.974609375
2024-04-04T06:29:03.000Z,9.685546874999995
2024-04-04T06:30:03.000Z,9.685546874999995
2024-04-04T06:31:03.000Z,10.007812500000002
2024-04-04T06:32:03.000Z,9.685546874999995
2024-04-04T06:33:03.000Z,9.041015625000004
2024-04-04T06:34:04.000Z,9.685546874999995
2024-04-04T06:35:04.000Z,9.685546874999995
2024-04-04T06:36:04.000Z,10.007812500000002
2024-04-04T06:37:04.000Z,8.074218749999995
2024-04-04T06:38:05.000Z,10.007812500000002
2024-04-04T06:39:05.000Z,8.396484375000002
2024-04-04T06:40:05.000Z,10.652343750000004
2024-04-04T06:41:05.000Z,10.007812500000002
2024-04-04T06:42:05.000Z,10.007812500000002
2024-04-04T06:43:05.000Z,10.330078124999996
2024-04-04T06:44:06.000Z,10.330078124999996
2024-04-04T06:45:06.000Z,10.330078124999996
2024-04-04T06:46:06.000Z,9.36328125
2024-04-04T06:47:06.000Z,10.330078124999996
2024-04-04T06:48:07.000Z,9.36328125
2024-04-04T06:49:07.000Z,10.330078124999996
2024-04-04T06:50:07.000Z,10.652343750000004
2024-04-04T06:51:07.000Z,10.974609375
2024-04-04T06:52:07.000Z,12.263671875000004
2024-04-04T06:53:08.000Z,11.941406249999996
2024-04-04T06:54:08.000Z,11.296874999999995
2024-04-04T06:55:08.000Z,12.263671875000004
2024-04-04T06:56:08.000Z,12.5859375
2024-04-04T06:57:09.000Z,11.296874999999995
2024-04-04T06:58:09.000Z,10.974609375
2024-04-04T06:59:09.000Z,11.296874999999995
2024-04-04T07:00:09.000Z,11.619140625000002
2024-04-04T07:01:09.000Z,12.5859375
2024-04-04T07:02:09.000Z,11.941406249999996
2024-04-04T07:03:10.000Z,11.619140625000002
2024-04-04T07:04:10.000Z,11.619140625000002
2024-04-04T07:05:10.000Z,11.619140625000002
2024-04-04T07:06:10.000Z,11.296874999999995
2024-04-04T07:07:11.000Z,13.874999999999993
2024-04-04T07:08:11.000Z,14.519531249999995
2024-04-04T07:09:11.000Z,11.619140625000002
2024-04-04T07:10:11.000Z,12.908203124999995
2024-04-04T07:11:11.000Z,13.552734374999996
2024-04-04T07:12:12.000Z,12.5859375
2024-04-04T07:13:12.000Z,12.263671875000004
2024-04-04T07:14:12.000Z,11.296874999999995
2024-04-04T07:15:12.000Z,11.941406249999996
2024-04-04T07:16:12.000Z,12.263671875000004
2024-04-04T07:17:13.000Z,12.263671875000004
2024-04-04T07:18:13.000Z,13.230468750000002
2024-04-04T07:19:13.000Z,13.230468750000002
2024-04-04T07:20:13.000Z,11.619140625000002
2024-04-04T07:21:13.000Z,13.230468750000002
2024-04-04T07:22:14.000Z,13.552734374999996
2024-04-04T07:23:14.000Z,11.941406249999996
2024-04-04T07:24:14.000Z,12.263671875000004
2024-04-04T07:25:14.000Z,11.296874999999995
2024-04-04T07:26:14.000Z,12.5859375
2024-04-04T07:27:14.000Z,12.5859375
2024-04-04T07:28:15.000Z,12.5859375
2024-04-04T07:29:15.000Z,12.263671875000004
2024-04-04T07:30:15.000Z,11.619140625000002
2024-04-04T07:31:15.000Z,10.330078124999996
2024-04-04T07:32:15.000Z,13.552734374999996
2024-04-04T07:33:15.000Z,12.263671875000004
2024-04-04T07:34:16.000Z,12.908203124999995
2024-04-04T07:35:16.000Z,11.296874999999995
2024-04-04T07:36:16.000Z,10.974609375
2024-04-04T07:37:16.000Z,13.230468750000002
2024-04-04T07:38:16.000Z,13.874999999999993
2024-04-04T07:39:17.000Z,12.908203124999995
2024-04-04T07:40:17.000Z,11.941406249999996
2024-04-04T07:41:17.000Z,12.908203124999995
2024-04-04T07:42:17.000Z,13.230468750000002
2024-04-04T07:43:18.000Z,12.263671875000004
2024-04-04T07:44:18.000Z,13.874999999999993
2024-04-04T07:45:18.000Z,13.230468750000002
2024-04-04T07:46:18.000Z,13.874999999999993
2024-04-04T07:47:18.000Z,12.263671875000004
2024-04-04T07:48:19.000Z,13.552734374999996
2024-04-04T07:49:19.000Z,12.908203124999995
2024-04-04T07:50:19.000Z,12.263671875000004
2024-04-04T07:51:19.000Z,13.552734374999996
2024-04-04T07:52:20.000Z,13.230468750000002
2024-04-04T07:53:20.000Z,14.197265625
2024-04-04T07:54:20.000Z,13.552734374999996
2024-04-04T07:55:20.000Z,14.841796875000002
2024-04-04T07:56:20.000Z,13.230468750000002
2024-04-04T07:57:20.000Z,13.874999999999993
2024-04-04T07:58:21.000Z,12.263671875000004
2024-04-04T07:59:21.000Z,13.552734374999996
2024-04-04T08:00:21.000Z,13.552734374999996
2024-04-04T08:01:21.000Z,14.519531249999995
2024-04-04T08:02:21.000Z,14.841796875000002
2024-04-04T08:03:21.000Z,14.197265625
2024-04-04T08:04:22.000Z,13.552734374999996
2024-04-04T08:05:22.000Z,13.874999999999993
2024-04-04T08:06:22.000Z,13.874999999999993
2024-04-04T08:07:22.000Z,14.841796875000002
2024-04-04T08:08:22.000Z,13.874999999999993
2024-04-04T08:09:23.000Z,14.519531249999995
2024-04-04T08:10:23.000Z,14.197265625
2024-04-04T08:11:23.000Z,14.197265625
2024-04-04T08:12:23.000Z,13.230468750000002
2024-04-04T08:13:23.000Z,13.230468750000002
2024-04-04T08:14:23.000Z,13.230468750000002
2024-04-04T08:15:24.000Z,13.230468750000002
2024-04-04T08:16:24.000Z,13.230468750000002
2024-04-04T08:17:24.000Z,13.230468750000002
2024-04-04T08:18:24.000Z,11.296874999999995
2024-04-04T08:19:25.000Z,12.908203124999995
2024-04-04T08:20:25.000Z,14.197265625
2024-04-04T08:21:25.000Z,12.263671875000004
2024-04-04T08:22:25.000Z,14.841796875000002
2024-04-04T08:23:25.000Z,12.908203124999995
2024-04-04T08:24:26.000Z,11.941406249999996
2024-04-04T08:25:26.000Z,14.197265625
2024-04-04T08:26:26.000Z,12.908203124999995
2024-04-04T08:27:26.000Z,12.5859375
2024-04-04T08:28:26.000Z,11.296874999999995
2024-04-04T08:29:27.000Z,13.552734374999996
2024-04-04T08:30:27.000Z,13.874999999999993
2024-04-04T08:31:27.000Z,11.941406249999996
2024-04-04T08:32:27.000Z,12.5859375
2024-04-04T08:33:27.000Z,12.5859375
2024-04-04T08:34:28.000Z,13.230468750000002
2024-04-04T08:35:28.000Z,12.908203124999995
2024-04-04T08:36:28.000Z,14.197265625
2024-04-04T08:37:28.000Z,11.619140625000002
2024-04-04T08:38:28.000Z,13.552734374999996
2024-04-04T08:39:29.000Z,12.263671875000004
2024-04-04T08:40:29.000Z,13.874999999999993
2024-04-04T08:41:29.000Z,12.908203124999995
2024-04-04T08:42:29.000Z,14.841796875000002
2024-04-04T08:43:29.000Z,12.908203124999995
2024-04-04T08:44:29.000Z,13.874999999999993
2024-04-04T08:45:30.000Z,13.874999999999993
2024-04-04T08:46:30.000Z,11.296874999999995
2024-04-04T08:47:30.000Z,12.5859375
2024-04-04T08:48:30.000Z,12.5859375
2024-04-04T08:49:31.000Z,12.5859375
2024-04-04T08:50:31.000Z,12.5859375
2024-04-04T08:51:31.000Z,11.296874999999995
2024-04-04T08:52:31.000Z,12.5859375
2024-04-04T08:53:31.000Z,11.296874999999995
2024-04-04T08:54:31.000Z,12.5859375
2024-04-04T08:55:32.000Z,12.5859375
2024-04-04T08:56:32.000Z,11.619140625000002
2024-04-04T08:57:32.000Z,12.5859375
2024-04-04T08:58:32.000Z,12.908203124999995
2024-04-04T08:59:32.000Z,13.230468750000002
2024-04-04T09:00:32.000Z,11.941406249999996
2024-04-04T09:01:33.000Z,13.552734374999996
2024-04-04T09:02:33.000Z,13.552734374999996
2024-04-04T09:03:33.000Z,11.941406249999996
2024-04-04T09:04:33.000Z,15.164062499999996
2024-04-04T09:05:33.000Z,14.197265625
2024-04-04T09:06:34.000Z,13.874999999999993
2024-04-04T09:07:34.000Z,12.908203124999995
2024-04-04T09:08:34.000Z,13.230468750000002
2024-04-04T09:09:34.000Z,12.908203124999995
2024-04-04T09:10:34.000Z,12.263671875000004
2024-04-04T09:11:34.000Z,13.230468750000002
2024-04-04T09:12:35.000Z,12.5859375
2024-04-04T09:13:35.000Z,13.552734374999996
2024-04-04T09:14:35.000Z,13.874999999999993
2024-04-04T09:15:35.000Z,13.874999999999993
2024-04-04T09:16:36.000Z,13.230468750000002
2024-04-04T09:17:36.000Z,14.197265625
2024-04-04T09:18:36.000Z,13.874999999999993
2024-04-04T09:19:36.000Z,14.519531249999995
2024-04-04T09:20:36.000Z,13.230468750000002
2024-04-04T09:21:37.000Z,15.486328124999993
2024-04-04T09:22:37.000Z,13.874999999999993
2024-04-04T09:23:37.000Z,14.841796875000002